sensor_id;sensor_type;location;lat;lon;timestamp;P1;durP1;ratioP1;P2;durP2;ratioP2
29236;SDS011;16266;50.866;4.398;2023-10-13T00:01:54;101.35;;;97.22;;
29236;SDS011;16266;50.866;4.398;2023-10-13T00:06:56;87.80;;;84.13;;
29236;SDS011;16266;50.866;4.398;2023-10-13T00:09:22;94.22;;;90.28;;
29236;SDS011;16266;50.866;4.398;2023-10-13T00:12:00;130.18;;;124.80;;
29236;SDS011;16266;50.866;4.398;2023-10-13T00:14:26;112.03;;;107.50;;
29236;SDS011;16266;50.866;4.398;2023-10-13T00:16:59;125.43;;;120.03;;
29236;SDS011;16266;50.866;4.398;2023-10-13T00:19:45;105.32;;;101.18;;
29236;SDS011;16266;50.866;4.398;2023-10-13T00:22:14;127.97;;;122.70;;
29236;SDS011;16266;50.866;4.398;2023-10-13T00:24:41;176.75;;;169.57;;
29236;SDS011;16266;50.866;4.398;2023-10-13T00:27:10;287.33;;;275.50;;
29236;SDS011;16266;50.866;4.398;2023-10-13T00:29:52;164.20;;;157.45;;
29236;SDS011;16266;50.866;4.398;2023-10-13T00:32:38;138.32;;;132.32;;
29236;SDS011;16266;50.866;4.398;2023-10-13T00:35:08;171.90;;;164.18;;
29236;SDS011;16266;50.866;4.398;2023-10-13T00:37:37;192.43;;;184.38;;
29236;SDS011;16266;50.866;4.398;2023-10-13T00:40:12;154.98;;;148.00;;
29236;SDS011;16266;50.866;4.398;2023-10-13T00:42:55;136.18;;;130.45;;
29236;SDS011;16266;50.866;4.398;2023-10-13T00:45:42;169.25;;;162.27;;
29236;SDS011;16266;50.866;4.398;2023-10-13T00:48:10;137.25;;;130.95;;
29236;SDS011;16266;50.866;4.398;2023-10-13T00:50:38;137.93;;;132.38;;
29236;SDS011;16266;50.866;4.398;2023-10-13T00:53:04;179.63;;;171.98;;
29236;SDS011;16266;50.866;4.398;2023-10-13T00:55:29;226.02;;;215.68;;
29236;SDS011;16266;50.866;4.398;2023-10-13T00:57:59;169.20;;;162.38;;
29236;SDS011;16266;50.866;4.398;2023-10-13T01:00:29;197.93;;;189.48;;
29236;SDS011;16266;50.866;4.398;2023-10-13T01:02:55;125.13;;;119.40;;
29236;SDS011;16266;50.866;4.398;2023-10-13T01:05:22;136.65;;;131.20;;
29236;SDS011;16266;50.866;4.398;2023-10-13T01:07:49;188.50;;;180.93;;
29236;SDS011;16266;50.866;4.398;2023-10-13T01:10:19;197.80;;;189.45;;
29236;SDS011;16266;50.866;4.398;2023-10-13T01:12:50;193.35;;;185.20;;
29236;SDS011;16266;50.866;4.398;2023-10-13T01:15:20;180.32;;;172.70;;
29236;SDS011;16266;50.866;4.398;2023-10-13T01:17:47;278.15;;;266.40;;
29236;SDS011;16266;50.866;4.398;2023-10-13T01:20:13;235.60;;;225.85;;
29236;SDS011;16266;50.866;4.398;2023-10-13T01:22:50;216.25;;;207.43;;
29236;SDS011;16266;50.866;4.398;2023-10-13T01:25:23;188.15;;;180.43;;
29236;SDS011;16266;50.866;4.398;2023-10-13T01:27:53;181.68;;;173.65;;
29236;SDS011;16266;50.866;4.398;2023-10-13T01:30:19;179.50;;;172.00;;
29236;SDS011;16266;50.866;4.398;2023-10-13T01:32:52;208.00;;;199.65;;
29236;SDS011;16266;50.866;4.398;2023-10-13T01:35:19;177.25;;;169.95;;
29236;SDS011;16266;50.866;4.398;2023-10-13T01:37:50;177.38;;;170.25;;
29236;SDS011;16266;50.866;4.398;2023-10-13T01:40:16;199.63;;;191.25;;
29236;SDS011;16266;50.866;4.398;2023-10-13T01:42:44;238.88;;;229.30;;
29236;SDS011;16266;50.866;4.398;2023-10-13T01:45:11;184.02;;;176.07;;
29236;SDS011;16266;50.866;4.398;2023-10-13T01:47:39;173.70;;;166.68;;
29236;SDS011;16266;50.866;4.398;2023-10-13T01:50:06;144.52;;;138.45;;
29236;SDS011;16266;50.866;4.398;2023-10-13T01:52:40;121.25;;;116.00;;
29236;SDS011;16266;50.866;4.398;2023-10-13T01:55:07;177.35;;;170.05;;
29236;SDS011;16266;50.866;4.398;2023-10-13T01:57:35;152.10;;;145.55;;
29236;SDS011;16266;50.866;4.398;2023-10-13T02:00:01;228.10;;;218.95;;
29236;SDS011;16266;50.866;4.398;2023-10-13T02:02:36;335.92;;;321.35;;
29236;SDS011;16266;50.866;4.398;2023-10-13T02:05:08;297.85;;;285.15;;
29236;SDS011;16266;50.866;4.398;2023-10-13T02:07:33;406.65;;;388.33;;
29236;SDS011;16266;50.866;4.398;2023-10-13T02:09:59;362.50;;;347.08;;
29236;SDS011;16266;50.866;4.398;2023-10-13T02:12:30;393.80;;;376.13;;
29236;SDS011;16266;50.866;4.398;2023-10-13T02:15:09;361.48;;;346.02;;
29236;SDS011;16266;50.866;4.398;2023-10-13T02:17:38;453.98;;;433.73;;
29236;SDS011;16266;50.866;4.398;2023-10-13T02:20:07;372.08;;;354.42;;
29236;SDS011;16266;50.866;4.398;2023-10-13T02:22:40;367.35;;;348.77;;
29236;SDS011;16266;50.866;4.398;2023-10-13T02:25:14;369.77;;;351.85;;
29236;SDS011;16266;50.866;4.398;2023-10-13T02:28:00;367.77;;;350.38;;
29236;SDS011;16266;50.866;4.398;2023-10-13T02:30:27;309.38;;;294.95;;
29236;SDS011;16266;50.866;4.398;2023-10-13T02:32:52;299.60;;;286.58;;
29236;SDS011;16266;50.866;4.398;2023-10-13T02:35:20;308.85;;;295.73;;
29236;SDS011;16266;50.866;4.398;2023-10-13T02:37:55;323.00;;;309.38;;
29236;SDS011;16266;50.866;4.398;2023-10-13T02:40:23;344.13;;;329.50;;
29236;SDS011;16266;50.866;4.398;2023-10-13T02:42:48;384.90;;;368.15;;
29236;SDS011;16266;50.866;4.398;2023-10-13T02:45:14;374.63;;;358.63;;
29236;SDS011;16266;50.866;4.398;2023-10-13T02:47:40;388.80;;;371.67;;
29236;SDS011;16266;50.866;4.398;2023-10-13T02:50:09;398.83;;;381.00;;
29236;SDS011;16266;50.866;4.398;2023-10-13T02:52:38;367.02;;;351.05;;
29236;SDS011;16266;50.866;4.398;2023-10-13T02:55:07;343.90;;;328.35;;
29236;SDS011;16266;50.866;4.398;2023-10-13T02:57:39;451.08;;;430.63;;
29236;SDS011;16266;50.866;4.398;2023-10-13T03:00:06;444.65;;;425.20;;
29236;SDS011;16266;50.866;4.398;2023-10-13T03:02:38;484.33;;;462.98;;
29236;SDS011;16266;50.866;4.398;2023-10-13T03:05:10;464.30;;;442.42;;
29236;SDS011;16266;50.866;4.398;2023-10-13T03:07:38;652.92;;;615.58;;
29236;SDS011;16266;50.866;4.398;2023-10-13T03:10:08;704.50;;;664.63;;
29236;SDS011;16266;50.866;4.398;2023-10-13T03:12:40;700.72;;;661.00;;
29236;SDS011;16266;50.866;4.398;2023-10-13T03:15:06;444.55;;;424.98;;
29236;SDS011;16266;50.866;4.398;2023-10-13T03:17:42;409.45;;;391.40;;
29236;SDS011;16266;50.866;4.398;2023-10-13T03:20:10;403.38;;;385.50;;
29236;SDS011;16266;50.866;4.398;2023-10-13T03:22:40;460.88;;;440.05;;
29236;SDS011;16266;50.866;4.398;2023-10-13T03:25:10;536.78;;;511.23;;
29236;SDS011;16266;50.866;4.398;2023-10-13T03:27:43;507.15;;;484.20;;
29236;SDS011;16266;50.866;4.398;2023-10-13T03:30:18;514.60;;;490.85;;
29236;SDS011;16266;50.866;4.398;2023-10-13T03:32:45;514.58;;;490.60;;
29236;SDS011;16266;50.866;4.398;2023-10-13T03:35:13;524.70;;;500.88;;
29236;SDS011;16266;50.866;4.398;2023-10-13T03:37:49;607.72;;;577.33;;
29236;SDS011;16266;50.866;4.398;2023-10-13T03:40:17;615.92;;;584.65;;
29236;SDS011;16266;50.866;4.398;2023-10-13T03:48:13;454.30;;;434.25;;
29236;SDS011;16266;50.866;4.398;2023-10-13T03:50:53;474.27;;;453.08;;
29236;SDS011;16266;50.866;4.398;2023-10-13T03:53:39;487.90;;;466.17;;
29236;SDS011;16266;50.866;4.398;2023-10-13T03:56:18;439.33;;;419.38;;
29236;SDS011;16266;50.866;4.398;2023-10-13T03:58:56;474.02;;;452.23;;
29236;SDS011;16266;50.866;4.398;2023-10-13T04:01:26;517.40;;;492.58;;
29236;SDS011;16266;50.866;4.398;2023-10-13T04:04:09;547.92;;;521.70;;
29236;SDS011;16266;50.866;4.398;2023-10-13T04:06:37;619.70;;;587.75;;
29236;SDS011;16266;50.866;4.398;2023-10-13T04:09:15;518.35;;;493.80;;
29236;SDS011;16266;50.866;4.398;2023-10-13T04:11:57;473.92;;;451.75;;
29236;SDS011;16266;50.866;4.398;2023-10-13T04:14:42;531.78;;;506.05;;
29236;SDS011;16266;50.866;4.398;2023-10-13T04:17:17;526.40;;;500.65;;
29236;SDS011;16266;50.866;4.398;2023-10-13T04:19:53;535.05;;;508.50;;
29236;SDS011;16266;50.866;4.398;2023-10-13T04:22:38;627.30;;;594.88;;
29236;SDS011;16266;50.866;4.398;2023-10-13T04:27:58;453.05;;;431.63;;
29236;SDS011;16266;50.866;4.398;2023-10-13T04:30:48;510.10;;;485.85;;
29236;SDS011;16266;50.866;4.398;2023-10-13T04:33:21;565.08;;;537.63;;
29236;SDS011;16266;50.866;4.398;2023-10-13T04:38:51;452.20;;;430.92;;
29236;SDS011;16266;50.866;4.398;2023-10-13T04:44:12;475.13;;;452.60;;
29236;SDS011;16266;50.866;4.398;2023-10-13T04:46:58;377.30;;;359.50;;
29236;SDS011;16266;50.866;4.398;2023-10-13T04:49:25;424.60;;;404.33;;
29236;SDS011;16266;50.866;4.398;2023-10-13T04:52:14;456.17;;;434.42;;
29236;SDS011;16266;50.866;4.398;2023-10-13T04:54:59;509.50;;;485.33;;
29236;SDS011;16266;50.866;4.398;2023-10-13T04:57:35;458.50;;;437.17;;
29236;SDS011;16266;50.866;4.398;2023-10-13T05:00:18;473.85;;;451.58;;
29236;SDS011;16266;50.866;4.398;2023-10-13T05:02:44;449.67;;;428.27;;
29236;SDS011;16266;50.866;4.398;2023-10-13T05:05:29;311.38;;;297.25;;
29236;SDS011;16266;50.866;4.398;2023-10-13T05:08:13;366.75;;;350.58;;
29236;SDS011;16266;50.866;4.398;2023-10-13T05:10:57;343.42;;;329.00;;
29236;SDS011;16266;50.866;4.398;2023-10-13T05:13:46;362.52;;;347.42;;
29236;SDS011;16266;50.866;4.398;2023-10-13T05:16:30;390.77;;;373.40;;
29236;SDS011;16266;50.866;4.398;2023-10-13T05:19:18;380.23;;;361.88;;
29236;SDS011;16266;50.866;4.398;2023-10-13T05:22:03;462.95;;;440.63;;
29236;SDS011;16266;50.866;4.398;2023-10-13T05:24:47;327.42;;;312.48;;
29236;SDS011;16266;50.866;4.398;2023-10-13T05:27:31;205.88;;;196.88;;
29236;SDS011;16266;50.866;4.398;2023-10-13T05:30:15;294.13;;;280.30;;
29236;SDS011;16266;50.866;4.398;2023-10-13T05:32:59;419.48;;;400.73;;
29236;SDS011;16266;50.866;4.398;2023-10-13T05:35:43;432.83;;;413.10;;
29236;SDS011;16266;50.866;4.398;2023-10-13T05:38:35;368.80;;;352.98;;
29236;SDS011;16266;50.866;4.398;2023-10-13T05:41:19;349.27;;;333.45;;
29236;SDS011;16266;50.866;4.398;2023-10-13T05:44:03;354.02;;;338.40;;
29236;SDS011;16266;50.866;4.398;2023-10-13T05:46:48;318.88;;;304.95;;
29236;SDS011;16266;50.866;4.398;2023-10-13T05:49:14;385.88;;;368.13;;
29236;SDS011;16266;50.866;4.398;2023-10-13T05:51:40;281.42;;;269.30;;
29236;SDS011;16266;50.866;4.398;2023-10-13T05:54:13;322.90;;;308.65;;
29236;SDS011;16266;50.866;4.398;2023-10-13T05:56:39;438.42;;;419.08;;
29236;SDS011;16266;50.866;4.398;2023-10-13T05:59:24;414.67;;;396.23;;
29236;SDS011;16266;50.866;4.398;2023-10-13T06:02:08;359.08;;;344.02;;
29236;SDS011;16266;50.866;4.398;2023-10-13T06:04:52;376.83;;;360.73;;
29236;SDS011;16266;50.866;4.398;2023-10-13T06:07:37;384.73;;;368.50;;
29236;SDS011;16266;50.866;4.398;2023-10-13T06:10:21;257.98;;;247.23;;
29236;SDS011;16266;50.866;4.398;2023-10-13T06:13:05;274.70;;;263.10;;
29236;SDS011;16266;50.866;4.398;2023-10-13T06:15:49;307.77;;;295.05;;
29236;SDS011;16266;50.866;4.398;2023-10-13T06:18:33;253.70;;;243.52;;
29236;SDS011;16266;50.866;4.398;2023-10-13T06:21:19;256.70;;;246.43;;
29236;SDS011;16266;50.866;4.398;2023-10-13T06:24:04;257.70;;;246.85;;
29236;SDS011;16266;50.866;4.398;2023-10-13T06:26:49;284.98;;;273.23;;
29236;SDS011;16266;50.866;4.398;2023-10-13T06:29:33;244.38;;;234.32;;
29236;SDS011;16266;50.866;4.398;2023-10-13T06:31:58;248.63;;;238.20;;
29236;SDS011;16266;50.866;4.398;2023-10-13T06:34:29;279.50;;;267.45;;
29236;SDS011;16266;50.866;4.398;2023-10-13T06:37:10;300.58;;;287.40;;
29236;SDS011;16266;50.866;4.398;2023-10-13T06:39:59;518.17;;;492.58;;
29236;SDS011;16266;50.866;4.398;2023-10-13T06:42:33;482.83;;;460.05;;
29236;SDS011;16266;50.866;4.398;2023-10-13T06:45:07;347.45;;;331.70;;
29236;SDS011;16266;50.866;4.398;2023-10-13T06:47:34;366.17;;;348.55;;
29236;SDS011;16266;50.866;4.398;2023-10-13T06:50:10;274.27;;;261.50;;
29236;SDS011;16266;50.866;4.398;2023-10-13T06:52:45;357.40;;;340.75;;
29236;SDS011;16266;50.866;4.398;2023-10-13T06:55:14;338.70;;;322.83;;
29236;SDS011;16266;50.866;4.398;2023-10-13T06:57:45;304.13;;;290.10;;
29236;SDS011;16266;50.866;4.398;2023-10-13T07:00:12;359.77;;;342.52;;
29236;SDS011;16266;50.866;4.398;2023-10-13T07:02:47;371.63;;;353.58;;
29236;SDS011;16266;50.866;4.398;2023-10-13T07:05:16;306.17;;;292.20;;
29236;SDS011;16266;50.866;4.398;2023-10-13T07:07:42;388.35;;;369.52;;
29236;SDS011;16266;50.866;4.398;2023-10-13T07:10:12;404.13;;;384.02;;
29236;SDS011;16266;50.866;4.398;2023-10-13T07:12:38;428.57;;;408.57;;
29236;SDS011;16266;50.866;4.398;2023-10-13T07:15:10;459.00;;;437.80;;
29236;SDS011;16266;50.866;4.398;2023-10-13T07:17:44;505.48;;;481.75;;
29236;SDS011;16266;50.866;4.398;2023-10-13T07:20:19;549.13;;;522.30;;
29236;SDS011;16266;50.866;4.398;2023-10-13T07:22:58;488.48;;;465.60;;
29236;SDS011;16266;50.866;4.398;2023-10-13T07:25:31;591.00;;;560.22;;
29236;SDS011;16266;50.866;4.398;2023-10-13T07:28:05;628.85;;;594.97;;
29236;SDS011;16266;50.866;4.398;2023-10-13T07:30:35;637.70;;;604.30;;
29236;SDS011;16266;50.866;4.398;2023-10-13T07:33:19;605.85;;;576.38;;
29236;SDS011;16266;50.866;4.398;2023-10-13T07:35:46;548.17;;;520.30;;
29236;SDS011;16266;50.866;4.398;2023-10-13T07:38:55;236.77;;;227.05;;
29236;SDS011;16266;50.866;4.398;2023-10-13T07:41:46;476.88;;;454.75;;
29236;SDS011;16266;50.866;4.398;2023-10-13T07:44:17;595.83;;;565.33;;
29236;SDS011;16266;50.866;4.398;2023-10-13T07:46:45;526.80;;;500.85;;
29236;SDS011;16266;50.866;4.398;2023-10-13T07:49:23;467.25;;;444.73;;
29236;SDS011;16266;50.866;4.398;2023-10-13T07:51:56;493.13;;;470.75;;
29236;SDS011;16266;50.866;4.398;2023-10-13T07:54:31;342.63;;;327.42;;
29236;SDS011;16266;50.866;4.398;2023-10-13T07:56:57;323.77;;;310.15;;
29236;SDS011;16266;50.866;4.398;2023-10-13T07:59:23;401.40;;;383.38;;
29236;SDS011;16266;50.866;4.398;2023-10-13T08:01:49;417.67;;;398.95;;
29236;SDS011;16266;50.866;4.398;2023-10-13T08:04:34;370.10;;;354.15;;
29236;SDS011;16266;50.866;4.398;2023-10-13T08:07:01;334.98;;;320.52;;
29236;SDS011;16266;50.866;4.398;2023-10-13T08:09:37;447.30;;;427.42;;
29236;SDS011;16266;50.866;4.398;2023-10-13T08:12:08;311.20;;;297.40;;
29236;SDS011;16266;50.866;4.398;2023-10-13T08:14:37;141.77;;;136.18;;
29236;SDS011;16266;50.866;4.398;2023-10-13T08:17:08;108.30;;;104.10;;
29236;SDS011;16266;50.866;4.398;2023-10-13T08:19:37;116.75;;;112.03;;
29236;SDS011;16266;50.866;4.398;2023-10-13T08:22:14;80.53;;;77.45;;
29236;SDS011;16266;50.866;4.398;2023-10-13T08:24:43;91.30;;;87.78;;
29236;SDS011;16266;50.866;4.398;2023-10-13T08:27:10;98.45;;;94.60;;
29236;SDS011;16266;50.866;4.398;2023-10-13T08:29:54;97.45;;;93.47;;
29236;SDS011;16266;50.866;4.398;2023-10-13T08:32:23;123.20;;;118.38;;
29236;SDS011;16266;50.866;4.398;2023-10-13T08:35:00;115.97;;;111.47;;
29236;SDS011;16266;50.866;4.398;2023-10-13T08:37:27;96.15;;;92.10;;
29236;SDS011;16266;50.866;4.398;2023-10-13T08:40:11;114.75;;;110.28;;
29236;SDS011;16266;50.866;4.398;2023-10-13T08:42:56;126.72;;;121.15;;
29236;SDS011;16266;50.866;4.398;2023-10-13T08:45:28;134.48;;;128.18;;
29236;SDS011;16266;50.866;4.398;2023-10-13T08:47:56;220.35;;;211.60;;
29236;SDS011;16266;50.866;4.398;2023-10-13T08:50:42;292.02;;;280.08;;
29236;SDS011;16266;50.866;4.398;2023-10-13T08:56:00;303.83;;;291.00;;
29236;SDS011;16266;50.866;4.398;2023-10-13T08:58:49;342.88;;;328.38;;
29236;SDS011;16266;50.866;4.398;2023-10-13T09:01:25;323.77;;;310.38;;
29236;SDS011;16266;50.866;4.398;2023-10-13T09:04:17;223.98;;;213.95;;
29236;SDS011;16266;50.866;4.398;2023-10-13T09:09:29;287.65;;;275.63;;
29236;SDS011;16266;50.866;4.398;2023-10-13T09:12:02;324.63;;;311.23;;
29236;SDS011;16266;50.866;4.398;2023-10-13T09:14:42;273.75;;;262.88;;
29236;SDS011;16266;50.866;4.398;2023-10-13T09:17:22;269.33;;;258.60;;
29236;SDS011;16266;50.866;4.398;2023-10-13T09:20:01;273.23;;;262.30;;
29236;SDS011;16266;50.866;4.398;2023-10-13T09:22:50;345.25;;;330.90;;
29236;SDS011;16266;50.866;4.398;2023-10-13T09:25:33;304.58;;;292.35;;
29236;SDS011;16266;50.866;4.398;2023-10-13T09:28:04;227.55;;;218.38;;
29236;SDS011;16266;50.866;4.398;2023-10-13T09:30:45;141.95;;;136.40;;
29236;SDS011;16266;50.866;4.398;2023-10-13T09:33:21;101.15;;;96.95;;
29236;SDS011;16266;50.866;4.398;2023-10-13T09:35:58;81.43;;;77.72;;
29236;SDS011;16266;50.866;4.398;2023-10-13T09:38:25;98.25;;;94.32;;
29236;SDS011;16266;50.866;4.398;2023-10-13T09:40:53;87.00;;;83.22;;
29236;SDS011;16266;50.866;4.398;2023-10-13T09:43:22;100.65;;;96.35;;
29236;SDS011;16266;50.866;4.398;2023-10-13T09:45:50;116.00;;;111.53;;
29236;SDS011;16266;50.866;4.398;2023-10-13T09:48:31;127.32;;;122.22;;
29236;SDS011;16266;50.866;4.398;2023-10-13T09:51:16;118.00;;;112.43;;
29236;SDS011;16266;50.866;4.398;2023-10-13T09:53:56;98.35;;;94.55;;
29236;SDS011;16266;50.866;4.398;2023-10-13T09:56:46;100.45;;;96.47;;
29236;SDS011;16266;50.866;4.398;2023-10-13T09:59:22;88.00;;;84.50;;
29236;SDS011;16266;50.866;4.398;2023-10-13T10:01:59;62.55;;;60.13;;
29236;SDS011;16266;50.866;4.398;2023-10-13T10:04:33;127.47;;;122.63;;
29236;SDS011;16266;50.866;4.398;2023-10-13T10:07:06;82.00;;;78.38;;
29236;SDS011;16266;50.866;4.398;2023-10-13T10:09:34;65.70;;;62.50;;
29236;SDS011;16266;50.866;4.398;2023-10-13T10:18:00;53.10;;;50.88;;
29236;SDS011;16266;50.866;4.398;2023-10-13T10:20:28;54.67;;;52.28;;
29236;SDS011;16266;50.866;4.398;2023-10-13T10:23:09;55.47;;;52.92;;
29236;SDS011;16266;50.866;4.398;2023-10-13T10:25:43;77.53;;;74.10;;
29236;SDS011;16266;50.866;4.398;2023-10-13T10:28:11;72.53;;;69.47;;
29236;SDS011;16266;50.866;4.398;2023-10-13T10:30:41;59.03;;;56.47;;
29236;SDS011;16266;50.866;4.398;2023-10-13T10:33:09;51.10;;;49.10;;
29236;SDS011;16266;50.866;4.398;2023-10-13T10:35:41;57.38;;;54.35;;
29236;SDS011;16266;50.866;4.398;2023-10-13T10:38:14;70.25;;;67.25;;
29236;SDS011;16266;50.866;4.398;2023-10-13T10:40:51;63.25;;;60.70;;
29236;SDS011;16266;50.866;4.398;2023-10-13T10:43:30;33.55;;;32.08;;
29236;SDS011;16266;50.866;4.398;2023-10-13T10:48:52;27.15;;;25.80;;
29236;SDS011;16266;50.866;4.398;2023-10-13T10:51:28;32.90;;;30.88;;
29236;SDS011;16266;50.866;4.398;2023-10-13T10:53:57;36.92;;;34.90;;
29236;SDS011;16266;50.866;4.398;2023-10-13T10:56:36;53.47;;;50.60;;
29236;SDS011;16266;50.866;4.398;2023-10-13T10:59:02;105.18;;;101.00;;
29236;SDS011;16266;50.866;4.398;2023-10-13T11:01:30;106.50;;;101.47;;
29236;SDS011;16266;50.866;4.398;2023-10-13T11:06:36;62.38;;;59.67;;
29236;SDS011;16266;50.866;4.398;2023-10-13T11:09:07;37.70;;;35.63;;
29236;SDS011;16266;50.866;4.398;2023-10-13T11:11:52;33.10;;;30.45;;
29236;SDS011;16266;50.866;4.398;2023-10-13T11:14:19;32.35;;;30.98;;
29236;SDS011;16266;50.866;4.398;2023-10-13T11:16:52;28.58;;;27.23;;
29236;SDS011;16266;50.866;4.398;2023-10-13T11:19:36;28.70;;;27.55;;
29236;SDS011;16266;50.866;4.398;2023-10-13T11:22:12;36.30;;;33.78;;
29236;SDS011;16266;50.866;4.398;2023-10-13T11:25:00;70.35;;;67.60;;
29236;SDS011;16266;50.866;4.398;2023-10-13T11:27:39;55.75;;;53.25;;
29236;SDS011;16266;50.866;4.398;2023-10-13T11:30:15;65.10;;;62.30;;
29236;SDS011;16266;50.866;4.398;2023-10-13T11:32:45;53.72;;;51.47;;
29236;SDS011;16266;50.866;4.398;2023-10-13T11:35:21;44.05;;;42.25;;
29236;SDS011;16266;50.866;4.398;2023-10-13T11:37:50;31.73;;;30.48;;
29236;SDS011;16266;50.866;4.398;2023-10-13T11:40:29;25.95;;;24.80;;
29236;SDS011;16266;50.866;4.398;2023-10-13T11:43:15;20.73;;;19.83;;
29236;SDS011;16266;50.866;4.398;2023-10-13T11:45:42;20.63;;;19.67;;
29236;SDS011;16266;50.866;4.398;2023-10-13T11:48:31;22.95;;;21.27;;
29236;SDS011;16266;50.866;4.398;2023-10-13T11:51:03;22.08;;;20.58;;
29236;SDS011;16266;50.866;4.398;2023-10-13T11:53:36;20.50;;;18.90;;
29236;SDS011;16266;50.866;4.398;2023-10-13T11:56:02;18.58;;;17.35;;
29236;SDS011;16266;50.866;4.398;2023-10-13T11:58:37;20.35;;;18.77;;
29236;SDS011;16266;50.866;4.398;2023-10-13T12:03:41;23.45;;;22.25;;
29236;SDS011;16266;50.866;4.398;2023-10-13T12:06:26;27.95;;;26.33;;
29236;SDS011;16266;50.866;4.398;2023-10-13T12:09:02;34.70;;;33.10;;
29236;SDS011;16266;50.866;4.398;2023-10-13T12:11:37;19.83;;;19.08;;
29236;SDS011;16266;50.866;4.398;2023-10-13T12:14:06;20.50;;;19.58;;
29236;SDS011;16266;50.866;4.398;2023-10-13T12:16:45;18.02;;;17.13;;
29236;SDS011;16266;50.866;4.398;2023-10-13T12:19:24;17.48;;;16.65;;
29236;SDS011;16266;50.866;4.398;2023-10-13T12:21:53;19.65;;;18.55;;
29236;SDS011;16266;50.866;4.398;2023-10-13T12:24:27;17.98;;;17.17;;
29236;SDS011;16266;50.866;4.398;2023-10-13T12:27:02;16.67;;;15.98;;
29236;SDS011;16266;50.866;4.398;2023-10-13T12:29:43;19.35;;;18.33;;
29236;SDS011;16266;50.866;4.398;2023-10-13T12:32:12;21.52;;;20.40;;
29236;SDS011;16266;50.866;4.398;2023-10-13T12:34:39;22.38;;;20.55;;
29236;SDS011;16266;50.866;4.398;2023-10-13T12:37:23;29.58;;;27.90;;
29236;SDS011;16266;50.866;4.398;2023-10-13T12:40:09;28.90;;;27.50;;
29236;SDS011;16266;50.866;4.398;2023-10-13T12:42:56;29.65;;;28.17;;
29236;SDS011;16266;50.866;4.398;2023-10-13T12:45:41;35.50;;;33.75;;
29236;SDS011;16266;50.866;4.398;2023-10-13T12:48:26;40.22;;;38.08;;
29236;SDS011;16266;50.866;4.398;2023-10-13T12:51:12;35.90;;;33.33;;
29236;SDS011;16266;50.866;4.398;2023-10-13T12:53:57;34.22;;;33.00;;
29236;SDS011;16266;50.866;4.398;2023-10-13T12:56:29;38.47;;;36.88;;
29236;SDS011;16266;50.866;4.398;2023-10-13T12:58:55;40.05;;;38.33;;
29236;SDS011;16266;50.866;4.398;2023-10-13T13:01:22;40.85;;;38.85;;
29236;SDS011;16266;50.866;4.398;2023-10-13T13:03:51;40.75;;;38.75;;
29236;SDS011;16266;50.866;4.398;2023-10-13T13:06:22;44.40;;;41.97;;
29236;SDS011;16266;50.866;4.398;2023-10-13T13:08:55;36.33;;;34.78;;
29236;SDS011;16266;50.866;4.398;2023-10-13T13:11:22;34.10;;;32.65;;
29236;SDS011;16266;50.866;4.398;2023-10-13T13:13:48;28.92;;;27.83;;
29236;SDS011;16266;50.866;4.398;2023-10-13T13:16:14;28.27;;;26.98;;
29236;SDS011;16266;50.866;4.398;2023-10-13T13:18:45;31.60;;;29.98;;
29236;SDS011;16266;50.866;4.398;2023-10-13T13:21:11;27.75;;;26.48;;
29236;SDS011;16266;50.866;4.398;2023-10-13T13:23:46;30.67;;;29.20;;
29236;SDS011;16266;50.866;4.398;2023-10-13T13:26:12;27.95;;;26.52;;
29236;SDS011;16266;50.866;4.398;2023-10-13T13:28:47;30.88;;;29.00;;
29236;SDS011;16266;50.866;4.398;2023-10-13T13:31:16;29.10;;;27.83;;
29236;SDS011;16266;50.866;4.398;2023-10-13T13:33:42;30.60;;;29.23;;
29236;SDS011;16266;50.866;4.398;2023-10-13T13:36:11;27.75;;;26.42;;
29236;SDS011;16266;50.866;4.398;2023-10-13T13:38:39;29.70;;;28.40;;
29236;SDS011;16266;50.866;4.398;2023-10-13T13:41:05;30.17;;;28.83;;
29236;SDS011;16266;50.866;4.398;2023-10-13T13:43:50;29.50;;;28.30;;
29236;SDS011;16266;50.866;4.398;2023-10-13T13:46:20;27.40;;;26.00;;
29236;SDS011;16266;50.866;4.398;2023-10-13T13:48:53;24.48;;;23.50;;
29236;SDS011;16266;50.866;4.398;2023-10-13T13:51:32;24.52;;;22.75;;
29236;SDS011;16266;50.866;4.398;2023-10-13T13:53:59;26.92;;;25.63;;
29236;SDS011;16266;50.866;4.398;2023-10-13T13:56:25;23.95;;;23.00;;
29236;SDS011;16266;50.866;4.398;2023-10-13T13:58:52;26.92;;;25.73;;
29236;SDS011;16266;50.866;4.398;2023-10-13T14:01:19;25.42;;;24.30;;
29236;SDS011;16266;50.866;4.398;2023-10-13T14:03:52;25.25;;;24.00;;
29236;SDS011;16266;50.866;4.398;2023-10-13T14:06:22;24.88;;;23.77;;
29236;SDS011;16266;50.866;4.398;2023-10-13T14:08:52;24.27;;;23.38;;
29236;SDS011;16266;50.866;4.398;2023-10-13T14:11:25;27.88;;;26.75;;
29236;SDS011;16266;50.866;4.398;2023-10-13T14:14:03;27.98;;;26.77;;
29236;SDS011;16266;50.866;4.398;2023-10-13T14:16:39;27.70;;;26.25;;
29236;SDS011;16266;50.866;4.398;2023-10-13T14:19:15;27.80;;;26.45;;
29236;SDS011;16266;50.866;4.398;2023-10-13T14:22:07;29.60;;;27.60;;
29236;SDS011;16266;50.866;4.398;2023-10-13T14:24:34;26.35;;;25.25;;
29236;SDS011;16266;50.866;4.398;2023-10-13T14:27:01;25.58;;;24.50;;
29236;SDS011;16266;50.866;4.398;2023-10-13T14:29:53;27.02;;;25.48;;
29236;SDS011;16266;50.866;4.398;2023-10-13T14:32:19;26.98;;;25.98;;
29236;SDS011;16266;50.866;4.398;2023-10-13T14:34:49;30.40;;;29.20;;
29236;SDS011;16266;50.866;4.398;2023-10-13T14:40:05;33.25;;;31.70;;
29236;SDS011;16266;50.866;4.398;2023-10-13T14:42:37;36.22;;;34.92;;
29236;SDS011;16266;50.866;4.398;2023-10-13T14:45:08;35.50;;;33.75;;
29236;SDS011;16266;50.866;4.398;2023-10-13T14:47:38;35.55;;;34.20;;
29236;SDS011;16266;50.866;4.398;2023-10-13T14:50:04;51.53;;;49.50;;
29236;SDS011;16266;50.866;4.398;2023-10-13T14:52:30;42.03;;;40.40;;
29236;SDS011;16266;50.866;4.398;2023-10-13T14:54:57;44.20;;;42.17;;
29236;SDS011;16266;50.866;4.398;2023-10-13T14:57:23;49.92;;;47.80;;
29236;SDS011;16266;50.866;4.398;2023-10-13T14:59:52;34.97;;;33.58;;
29236;SDS011;16266;50.866;4.398;2023-10-13T15:02:19;32.40;;;31.15;;
29236;SDS011;16266;50.866;4.398;2023-10-13T15:04:49;27.80;;;26.30;;
29236;SDS011;16266;50.866;4.398;2023-10-13T15:07:15;34.20;;;32.70;;
29236;SDS011;16266;50.866;4.398;2023-10-13T15:09:42;39.42;;;37.70;;
29236;SDS011;16266;50.866;4.398;2023-10-13T15:12:11;35.58;;;33.58;;
29236;SDS011;16266;50.866;4.398;2023-10-13T15:14:37;35.13;;;33.65;;
29236;SDS011;16266;50.866;4.398;2023-10-13T15:17:04;33.47;;;32.20;;
29236;SDS011;16266;50.866;4.398;2023-10-13T15:19:31;44.60;;;42.80;;
29236;SDS011;16266;50.866;4.398;2023-10-13T15:24:27;42.25;;;40.60;;
29236;SDS011;16266;50.866;4.398;2023-10-13T15:26:53;42.05;;;40.38;;